Time;durP1;ratioP1;P1;durP2;ratioP2;P2;SDS_P1;SDS_P2;PMS_P1;PMS_P2;Temp;Humidity;BMP_temperature;BMP_pressure;BME280_temperature;BME280_humidity;BME280_pressure;Samples;Min_cycle;Max_cycle;Signal;HPM_P1;HPM_P2
2023/08/17 00:02:46;;;;;;;;;;;;;;;17.88;72.54;101271.53;5032563;28;2312;-79
2023/08/17 00:05:37;;;;;;;;;;;;;;;17.88;72.70;101271.53;5034823;28;2523;-78
2023/08/17 00:08:29;;;;;;;;;;;;;;;17.87;72.41;101269.06;5047430;28;2004;-78
2023/08/17 00:11:21;;;;;;;;;;;;;;;17.87;72.52;101272.59;5038769;28;2323;-78
2023/08/17 00:14:13;;;;;;;;;;;;;;;17.86;72.48;101281.03;5032849;28;2356;-78
2023/08/17 00:17:05;;;;;;;;;;;;;;;17.86;72.59;101278.31;5032254;28;2368;-76
2023/08/17 00:19:57;;;;;;;;;;;;;;;17.85;72.44;101282.94;5034594;28;2348;-78
2023/08/17 00:22:49;;;;;;;;;;;;;;;17.84;72.23;101289.44;5032046;28;2536;-77
2023/08/17 00:25:41;;;;;;;;;;;;;;;17.84;72.34;101289.44;5038027;28;2269;-78
2023/08/17 00:28:33;;;;;;;;;;;;;;;17.84;72.25;101285.91;5033218;28;2552;-78
2023/08/17 00:31:25;;;;;;;;;;;;;;;17.84;72.50;101285.91;5048173;28;2218;-80
2023/08/17 00:34:17;;;;;;;;;;;;;;;17.83;72.17;101292.44;5031787;28;2587;-76
2023/08/17 00:37:09;;;;;;;;;;;;;;;17.82;72.42;101294.31;5032350;28;2312;-77
2023/08/17 00:40:01;;;;;;;;;;;;;;;17.81;72.30;101287.22;5032060;28;2606;-77
2023/08/17 00:42:53;;;;;;;;;;;;;;;17.82;72.19;101296.22;5040431;28;2328;-77
2023/08/17 00:45:44;;;;;;;;;;;;;;;17.81;72.13;101289.13;5031949;28;2423;-76
2023/08/17 00:48:36;;;;;;;;;;;;;;;17.81;72.07;101294.56;5033278;28;2560;-77
2023/08/17 00:51:28;;;;;;;;;;;;;;;17.79;72.31;101300.25;5036316;28;2348;-77
2023/08/17 00:54:20;;;;;;;;;;;;;;;17.79;72.15;101299.44;5034706;28;2365;-78
2023/08/17 00:57:12;;;;;;;;;;;;;;;17.78;71.96;101312.25;5035504;28;2351;-79
2023/08/17 01:00:05;;;;;;;;;;;;;;;17.78;72.04;101312.25;5036807;28;2325;-77
2023/08/17 01:02:56;;;;;;;;;;;;;;;17.77;72.00;101313.28;5034692;28;2434;-79
2023/08/17 01:05:48;;;;;;;;;;;;;;;17.77;71.96;101315.19;5033141;28;2327;-77
2023/08/17 01:08:40;;;;;;;;;;;;;;;17.77;71.89;101323.38;5035366;28;2378;-78
2023/08/17 01:11:32;;;;;;;;;;;;;;;17.76;71.94;101327.97;5035035;28;2319;-79
2023/08/17 01:14:24;;;;;;;;;;;;;;;17.75;71.99;101329.06;5036984;28;2390;-79
2023/08/17 01:17:16;;;;;;;;;;;;;;;17.76;71.91;101332.59;5038893;28;2245;-77
2023/08/17 01:20:09;;;;;;;;;;;;;;;17.75;71.83;101334.50;5034335;28;2252;-78
2023/08/17 01:23:00;;;;;;;;;;;;;;;17.74;71.88;101334.75;5040102;28;2365;-77
2023/08/17 01:25:53;;;;;;;;;;;;;;;17.74;72.01;101345.66;5035461;28;2237;-78
2023/08/17 01:28:44;;;;;;;;;;;;;;;17.71;71.89;101342.34;5036010;28;2587;-77
2023/08/17 01:31:36;;;;;;;;;;;;;;;17.71;71.84;101346.97;5037004;28;2387;-76
2023/08/17 01:34:27;;;;;;;;;;;;;;;17.72;71.74;101354.06;5034130;28;2552;-77
2023/08/17 01:37:19;;;;;;;;;;;;;;;17.71;71.76;101349.72;5049395;28;2312;-77
2023/08/17 01:40:11;;;;;;;;;;;;;;;17.69;71.88;101363.56;5047663;28;1352;-78
2023/08/17 01:43:03;;;;;;;;;;;;;;;17.69;71.66;101368.19;5054874;28;1849;-77
2023/08/17 01:45:55;;;;;;;;;;;;;;;17.69;71.86;101370.91;5052714;28;1481;-76
2023/08/17 01:48:47;;;;;;;;;;;;;;;17.67;71.93;101373.88;5044010;28;1319;-77
2023/08/17 01:51:39;;;;;;;;;;;;;;;17.67;71.86;101379.31;5042664;28;3121;-77
2023/08/17 01:54:31;;;;;;;;;;;;;;;17.66;71.70;101383.13;5043214;28;2151;-79
2023/08/17 01:57:23;;;;;;;;;;;;;;;17.65;71.73;101384.22;5050371;28;1937;-78
2023/08/17 02:00:15;;;;;;;;;;;;;;;17.65;71.65;101383.38;5043892;28;1515;-77
2023/08/17 02:03:08;;;;;;;;;;;;;;;17.63;71.86;101394.50;5041886;28;1526;-77
2023/08/17 02:05:59;;;;;;;;;;;;;;;17.63;71.67;101386.34;5050449;28;2111;-77
2023/08/17 02:08:52;;;;;;;;;;;;;;;17.64;71.78;101381.72;5043442;28;2178;-79
2023/08/17 02:11:43;;;;;;;;;;;;;;;17.63;71.72;101390.97;5048778;28;2173;-77
2023/08/17 02:14:34;;;;;;;;;;;;;;;17.63;71.51;101388.25;5039865;28;2292;-79
2023/08/17 02:17:27;;;;;;;;;;;;;;;17.64;71.66;101392.59;5034568;28;2355;-78
2023/08/17 02:20:18;;;;;;;;;;;;;;;17.62;71.89;101398.31;5034716;28;2411;-78
2023/08/17 02:23:11;;;;;;;;;;;;;;;17.61;71.45;101402.09;5033697;28;2598;-78
2023/08/17 02:26:02;;;;;;;;;;;;;;;17.60;71.45;101402.34;5034420;28;2268;-77
2023/08/17 02:28:55;;;;;;;;;;;;;;;17.61;71.37;101399.38;5037588;28;2336;-77
2023/08/17 02:31:46;;;;;;;;;;;;;;;17.59;71.44;101406.13;5034381;28;2320;-78
2023/08/17 02:34:39;;;;;;;;;;;;;;;17.59;71.33;101403.41;5034092;28;2356;-77
2023/08/17 02:37:30;;;;;;;;;;;;;;;17.60;71.35;101415.97;5034036;28;2634;-77
2023/08/17 02:40:23;;;;;;;;;;;;;;;17.58;71.33;101413.47;5035731;28;2588;-78
2023/08/17 02:43:14;;;;;;;;;;;;;;;17.58;71.39;101418.09;5039058;28;2407;-79
2023/08/17 02:46:07;;;;;;;;;;;;;;;17.56;71.57;101417.53;5031467;28;2476;-79
2023/08/17 02:48:58;;;;;;;;;;;;;;;17.56;71.42;101415.66;5035593;28;2556;-78
2023/08/17 02:51:51;;;;;;;;;;;;;;;17.55;71.30;101419.41;5033226;28;2367;-77
2023/08/17 02:54:43;;;;;;;;;;;;;;;17.57;71.37;101424.63;5034019;28;2538;-79
2023/08/17 02:57:35;;;;;;;;;;;;;;;17.56;71.02;101423.81;5034921;28;2318;-78
2023/08/17 03:00:27;;;;;;;;;;;;;;;17.56;71.09;101432.00;5034089;28;2502;-80
2023/08/17 03:03:18;;;;;;;;;;;;;;;17.56;71.13;101439.31;5032240;28;2591;-78
2023/08/17 03:06:10;;;;;;;;;;;;;;;17.53;71.25;101431.63;5033651;28;2603;-78
2023/08/17 03:09:02;;;;;;;;;;;;;;;17.52;71.10;101432.72;5032965;28;2674;-78
2023/08/17 03:11:55;;;;;;;;;;;;;;;17.52;71.10;101441.69;5035103;28;2387;-80
2023/08/17 03:14:47;;;;;;;;;;;;;;;17.49;71.22;101443.00;5034679;28;2269;-77
2023/08/17 03:17:38;;;;;;;;;;;;;;;17.51;71.16;101444.69;5033912;28;2662;-78
2023/08/17 03:20:31;;;;;;;;;;;;;;;17.53;71.06;101454.25;5041259;28;2569;-77
2023/08/17 03:23:22;;;;;;;;;;;;;;;17.50;71.08;101446.59;5032622;28;2280;-77
2023/08/17 03:26:14;;;;;;;;;;;;;;;17.52;70.87;101452.59;5033647;28;2607;-77
2023/08/17 03:29:08;;;;;;;;;;;;;;;17.52;71.18;101449.03;5036604;28;2268;-77
2023/08/17 03:32:00;;;;;;;;;;;;;;;17.48;70.86;101449.53;5043446;28;2333;-79
2023/08/17 03:34:51;;;;;;;;;;;;;;;17.51;70.96;101452.84;5043720;28;2217;-78
2023/08/17 03:37:44;;;;;;;;;;;;;;;17.49;70.84;101459.34;5048527;28;1660;-77
2023/08/17 03:40:36;;;;;;;;;;;;;;;17.49;70.89;101461.25;5046580;28;1442;-78
2023/08/17 03:43:28;;;;;;;;;;;;;;;17.48;70.82;101460.44;5051347;28;2162;-78
2023/08/17 03:46:20;;;;;;;;;;;;;;;17.47;71.11;101464.22;5043958;28;1574;-77
2023/08/17 03:49:12;;;;;;;;;;;;;;;17.46;71.10;101468.00;5054550;28;1350;-76
2023/08/17 03:52:03;;;;;;;;;;;;;;;17.53;70.52;101476.06;5047321;28;2090;-79
2023/08/17 03:54:55;;;;;;;;;;;;;;;17.55;70.48;101467.63;5050163;28;1953;-77
2023/08/17 03:57:48;;;;;;;;;;;;;;;17.50;70.56;101471.09;5045046;28;1430;-77
2023/08/17 04:00:42;;;;;;;;;;;;;;;17.48;70.58;101471.31;5046601;28;2533;-77
2023/08/17 04:03:33;;;;;;;;;;;;;;;17.51;70.59;101478.19;5051651;28;1405;-79
2023/08/17 04:06:26;;;;;;;;;;;;;;;17.49;70.59;101480.31;5043570;28;2119;-78
2023/08/17 04:09:20;;;;;;;;;;;;;;;17.52;70.38;101482.56;5042684;28;2344;-79
2023/08/17 04:12:11;;;;;;;;;;;;;;;17.51;70.38;101474.63;5035923;28;2340;-79
2023/08/17 04:15:04;;;;;;;;;;;;;;;17.52;70.27;101481.72;5031664;28;2257;-78
2023/08/17 04:17:55;;;;;;;;;;;;;;;17.52;70.48;101485.28;5032138;28;2393;-77
2023/08/17 04:20:46;;;;;;;;;;;;;;;17.57;70.31;101493.53;5031903;28;2603;-78
2023/08/17 04:23:39;;;;;;;;;;;;;;;17.56;70.13;101485.59;5033758;28;2248;-79
2023/08/17 04:26:32;;;;;;;;;;;;;;;17.55;70.09;101494.84;5036106;28;2498;-77
2023/08/17 04:29:23;;;;;;;;;;;;;;;17.55;70.20;101503.03;5038461;28;2312;-78
2023/08/17 04:32:16;;;;;;;;;;;;;;;17.54;70.35;101512.28;5037018;28;2333;-77
2023/08/17 04:35:07;;;;;;;;;;;;;;;17.56;69.95;101515.56;5036342;28;2437;-78
2023/08/17 04:37:58;;;;;;;;;;;;;;;17.63;69.68;101513.53;5036585;28;2339;-78
2023/08/17 04:40:51;;;;;;;;;;;;;;;17.57;69.79;101507.16;5035698;28;2332;-79
2023/08/17 04:43:43;;;;;;;;;;;;;;;17.56;69.71;101508.25;5040365;28;2238;-77
2023/08/17 04:46:34;;;;;;;;;;;;;;;17.62;69.61;101514.63;5037095;28;2305;-77
2023/08/17 04:49:27;;;;;;;;;;;;;;;17.64;69.53;101526.06;5038603;28;4204;-78
2023/08/17 04:52:18;;;;;;;;;;;;;;;17.56;69.66;101526.47;5039420;28;2289;-78
2023/08/17 04:55:10;;;;;;;;;;;;;;;17.76;68.98;101517.84;5045136;28;3793;-77
2023/08/17 04:58:02;;;;;;;;;;;;;;;17.77;68.92;101520.34;5041876;28;2237;-78
2023/08/17 05:00:54;;;;;;;;;;;;;;;17.75;68.93;101525.22;5036284;28;2901;-77
2023/08/17 05:03:46;;;;;;;;;;;;;;;17.84;68.55;101525.66;5045096;28;2576;-77
2023/08/17 05:06:38;;;;;;;;;;;;;;;17.62;69.17;101525.53;5049765;28;2214;-77
2023/08/17 05:09:31;;;;;;;;;;;;;;;17.69;68.96;101524.28;5049356;28;2122;-77
2023/08/17 05:12:23;;;;;;;;;;;;;;;17.78;68.61;101526.66;5043757;28;2480;-78
2023/08/17 05:15:15;;;;;;;;;;;;;;;17.62;69.18;101529.06;5048900;28;2070;-78
2023/08/17 05:18:06;;;;;;;;;;;;;;;17.74;68.78;101539.09;5048886;28;2090;-78
2023/08/17 05:20:57;;;;;;;;;;;;;;;17.63;69.11;101544.31;5045786;28;3085;-78
2023/08/17 05:23:49;;;;;;;;;;;;;;;17.68;69.07;101554.50;5046244;28;2267;-79
2023/08/17 05:26:41;;;;;;;;;;;;;;;17.77;68.62;101552.22;5051304;28;1449;-80
2023/08/17 05:29:33;;;;;;;;;;;;;;;17.64;69.08;101550.59;5047805;28;2271;-77
2023/08/17 05:32:25;;;;;;;;;;;;;;;17.60;69.11;101549.44;5043786;28;2322;-79
2023/08/17 05:35:17;;;;;;;;;;;;;;;17.58;69.19;101560.56;5045288;28;2225;-78
2023/08/17 05:38:09;;;;;;;;;;;;;;;17.57;69.06;101556.19;5042017;28;2710;-78
2023/08/17 05:41:03;;;;;;;;;;;;;;;17.57;69.27;101558.91;5047894;28;1533;-80
2023/08/17 05:43:55;;;;;;;;;;;;;;;17.59;68.92;101553.22;5039654;28;2317;-77
2023/08/17 05:46:48;;;;;;;;;;;;;;;17.59;69.07;101559.50;5040198;28;2976;-77
2023/08/17 05:49:39;;;;;;;;;;;;;;;17.63;68.59;101557.13;5051823;28;1801;-79
2023/08/17 05:52:31;;;;;;;;;;;;;;;17.59;69.09;101562.22;5050057;28;2165;-78
2023/08/17 05:55:22;;;;;;;;;;;;;;;17.54;69.14;101564.84;5045565;28;2408;-77
2023/08/17 05:58:13;;;;;;;;;;;;;;;17.45;69.44;101564.41;5056767;28;1390;-78
2023/08/17 06:01:06;;;;;;;;;;;;;;;17.48;69.24;101571.25;5048552;28;2281;-78
2023/08/17 06:03:57;;;;;;;;;;;;;;;17.49;69.12;101568.28;5049909;28;1811;-79
2023/08/17 06:06:49;;;;;;;;;;;;;;;17.49;69.32;101568.28;5045914;28;2015;-78
2023/08/17 06:09:40;;;;;;;;;;;;;;;17.33;69.89;101579.94;5043187;28;1475;-78
2023/08/17 06:12:33;;;;;;;;;;;;;;;17.39;69.56;101569.97;5047131;28;2270;-79
2023/08/17 06:15:24;;;;;;;;;;;;;;;17.47;69.31;101572.31;5051481;28;2175;-78
2023/08/17 06:18:16;;;;;;;;;;;;;;;17.41;69.31;101582.28;5038194;28;2289;-77
2023/08/17 06:21:08;;;;;;;;;;;;;;;17.35;69.62;101585.94;5043134;28;2404;-79
2023/08/17 06:24:00;;;;;;;;;;;;;;;17.27;69.73;101577.34;5056259;28;1461;-77
2023/08/17 06:26:52;;;;;;;;;;;;;;;17.24;69.88;101586.81;5054905;28;1778;-77
2023/08/17 06:29:45;;;;;;;;;;;;;;;17.20;70.21;101589.16;5047356;28;2071;-78
2023/08/17 06:32:36;;;;;;;;;;;;;;;17.20;70.05;101591.06;5050392;28;2194;-79
2023/08/17 06:35:31;;;;;;;;;;;;;;;17.20;70.17;101597.34;5055026;28;2254;-76
2023/08/17 06:38:23;;;;;;;;;;;;;;;17.16;70.23;101598.06;5043126;28;3200;-78
2023/08/17 06:41:15;;;;;;;;;;;;;;;17.13;70.47;101604.81;5044983;28;2154;-79
2023/08/17 06:44:07;;;;;;;;;;;;;;;17.11;70.50;101612.38;5046852;28;2656;-79
2023/08/17 06:46:58;;;;;;;;;;;;;;;17.11;70.33;101617.00;5050134;28;2117;-78
2023/08/17 06:49:51;;;;;;;;;;;;;;;17.09;70.61;101619.13;5045932;28;2083;-78
2023/08/17 06:52:43;;;;;;;;;;;;;;;17.10;70.33;101623.53;5044795;28;2087;-78
2023/08/17 06:55:37;;;;;;;;;;;;;;;17.08;70.55;101623.75;5041612;28;4144;-79
2023/08/17 06:58:28;;;;;;;;;;;;;;;17.10;70.44;101628.97;5040529;28;2489;-79
2023/08/17 07:01:21;;;;;;;;;;;;;;;17.09;70.32;101641.75;5036416;28;2825;-80
2023/08/17 07:04:12;;;;;;;;;;;;;;;17.10;70.35;101648.84;5038316;28;2858;-79
2023/08/17 07:07:04;;;;;;;;;;;;;;;17.08;70.43;101650.97;5036927;28;2698;-80
2023/08/17 07:09:56;;;;;;;;;;;;;;;17.09;70.49;101643.63;5037112;28;2593;-80
2023/08/17 07:12:47;;;;;;;;;;;;;;;17.09;70.40;101654.50;5035659;28;3088;-80
2023/08/17 07:15:40;;;;;;;;;;;;;;;17.08;70.44;101655.56;5036760;28;2621;-80
2023/08/17 07:18:32;;;;;;;;;;;;;;;17.08;70.57;101653.69;5041579;28;2598;-78
2023/08/17 07:21:23;;;;;;;;;;;;;;;17.08;70.56;101663.75;5037251;28;2692;-80
2023/08/17 07:24:16;;;;;;;;;;;;;;;17.08;70.55;101666.47;5034299;28;2904;-79
2023/08/17 07:27:08;;;;;;;;;;;;;;;17.08;70.51;101666.47;5034380;28;2597;-80
2023/08/17 07:30:00;;;;;;;;;;;;;;;17.08;70.50;101671.91;5034340;28;2658;-78
2023/08/17 07:32:52;;;;;;;;;;;;;;;17.09;70.50;101670.84;5033203;28;2609;-77
2023/08/17 07:35:44;;;;;;;;;;;;;;;17.08;70.33;101670.00;5035445;28;2693;-79
2023/08/17 07:38:36;;;;;;;;;;;;;;;17.09;70.38;101673.56;5034076;28;2672;-79
2023/08/17 07:41:28;;;;;;;;;;;;;;;17.09;70.50;101679.84;5035728;28;2568;-78
2023/08/17 07:44:20;;;;;;;;;;;;;;;17.08;70.59;101680.91;5033768;28;2581;-78
2023/08/17 07:47:12;;;;;;;;;;;;;;;17.09;70.41;101687.16;5033689;28;2704;-78
2023/08/17 07:50:04;;;;;;;;;;;;;;;17.09;70.47;101685.28;5038607;28;2700;-80
2023/08/17 07:52:56;;;;;;;;;;;;;;;17.09;70.46;101693.47;5035596;28;2760;-80
2023/08/17 07:55:48;;;;;;;;;;;;;;;17.09;70.62;101692.59;5035653;28;2679;-79
2023/08/17 07:58:39;;;;;;;;;;;;;;;17.09;70.50;101700.78;5034191;28;2574;-78
2023/08/17 08:01:32;;;;;;;;;;;;;;;17.08;70.26;101694.50;5035416;28;2612;-79
2023/08/17 08:04:24;;;;;;;;;;;;;;;17.09;70.58;101698.91;5033799;28;2602;-81
2023/08/17 08:07:16;;;;;;;;;;;;;;;17.09;70.70;101701.63;5034823;28;2849;-79
2023/08/17 08:10:07;;;;;;;;;;;;;;;17.09;70.59;101700.78;5033793;28;2600;-79
2023/08/17 08:13:00;;;;;;;;;;;;;;;17.10;70.55;101700.56;5035494;28;2704;-79
2023/08/17 08:15:51;;;;;;;;;;;;;;;17.10;70.53;101702.44;5037718;28;2648;-81
2023/08/17 08:18:43;;;;;;;;;;;;;;;17.10;70.59;101695.09;5034119;28;2738;-77
2023/08/17 08:21:36;;;;;;;;;;;;;;;17.10;70.62;101694.28;5035492;28;2554;-79
2023/08/17 08:24:33;;;;;;;;;;;;;;;17.09;70.44;101696.19;5033196;28;2687;-79
2023/08/17 08:27:24;;;;;;;;;;;;;;;17.09;70.65;101693.47;5035349;28;2663;-80
2023/08/17 08:30:16;;;;;;;;;;;;;;;17.10;70.65;101708.72;5037871;28;2617;-80
2023/08/17 08:33:08;;;;;;;;;;;;;;;17.08;70.56;101699.94;5037505;28;3101;-79
2023/08/17 08:36:00;;;;;;;;;;;;;;;17.09;70.66;101696.19;5034296;28;2843;-80
2023/08/17 08:38:52;;;;;;;;;;;;;;;17.10;70.69;101706.00;5039435;28;2853;-81
2023/08/17 08:41:44;;;;;;;;;;;;;;;17.08;70.83;101699.94;5036415;28;2724;-80
2023/08/17 08:44:36;;;;;;;;;;;;;;;17.09;70.87;101711.66;5036084;28;2739;-80
2023/08/17 08:47:27;;;;;;;;;;;;;;;17.09;70.84;101707.06;5036704;28;2752;-80
2023/08/17 08:50:19;;;;;;;;;;;;;;;17.09;70.89;101704.34;5037805;28;2664;-81
2023/08/17 08:53:11;;;;;;;;;;;;;;;17.08;70.89;101699.13;5037425;28;2707;-79
2023/08/17 08:56:02;;;;;;;;;;;;;;;17.09;70.94;101698.06;5037870;28;2580;-81
2023/08/17 08:58:54;;;;;;;;;;;;;;;17.09;70.90;101701.63;5048841;28;2564;-80
2023/08/17 09:01:46;;;;;;;;;;;;;;;17.09;70.87;101700.78;5032759;28;5780;-82
2023/08/17 09:04:38;;;;;;;;;;;;;;;17.10;70.68;101705.16;5032792;28;2744;-80
2023/08/17 09:07:30;;;;;;;;;;;;;;;17.11;70.85;101701.38;5029456;28;5076;-81
2023/08/17 09:10:22;;;;;;;;;;;;;;;17.10;70.87;101695.09;5025592;28;2788;-81
2023/08/17 09:13:13;;;;;;;;;;;;;;;17.10;70.86;101686.13;5034395;28;5426;-80
2023/08/17 09:16:05;;;;;;;;;;;;;;;17.11;70.98;101693.22;5029639;28;5249;-82
2023/08/17 09:18:57;;;;;;;;;;;;;;;17.11;70.93;101691.31;5037750;28;4772;-79
2023/08/17 09:21:49;;;;;;;;;;;;;;;17.12;70.86;101697.56;5040841;28;2462;-81
2023/08/17 09:24:41;;;;;;;;;;;;;;;17.12;70.86;101693.00;5033684;28;2931;-79
2023/08/17 09:27:33;;;;;;;;;;;;;;;17.12;71.01;101692.13;5033214;28;5031;-80
2023/08/17 09:30:25;;;;;;;;;;;;;;;17.13;70.90;101691.09;5033522;28;2173;-82
2023/08/17 09:33:17;;;;;;;;;;;;;;;17.12;70.79;101687.53;5029033;28;2483;-79
2023/08/17 09:36:09;;;;;;;;;;;;;;;17.13;70.81;101694.63;5037020;28;2159;-79
2023/08/17 09:39:01;;;;;;;;;;;;;;;17.12;70.80;101690.28;5030247;28;2447;-79
2023/08/17 09:41:52;;;;;;;;;;;;;;;17.14;70.78;101700.91;5031819;28;2507;-80
2023/08/17 09:44:44;;;;;;;;;;;;;;;17.15;70.97;101691.69;5023705;28;2358;-78
2023/08/17 09:47:36;;;;;;;;;;;;;;;17.16;70.86;101698.78;5022789;28;2404;-82
2023/08/17 09:50:28;;;;;;;;;;;;;;;17.15;70.97;101687.06;5026842;28;2468;-80
2023/08/17 09:53:19;;;;;;;;;;;;;;;17.16;70.71;101687.91;5025032;28;2396;-81
2023/08/17 09:56:12;;;;;;;;;;;;;;;17.18;70.93;101696.66;5022919;28;2734;-81
2023/08/17 09:59:03;;;;;;;;;;;;;;;17.18;70.70;101691.22;5045811;28;2042;-81
2023/08/17 10:01:55;;;;;;;;;;;;;;;17.17;70.78;101687.66;5023343;28;1689;-80
2023/08/17 10:04:47;;;;;;;;;;;;;;;17.19;70.72;101687.41;5024378;28;2580;-81
2023/08/17 10:07:39;;;;;;;;;;;;;;;17.18;70.91;101692.03;5037792;28;2323;-81
2023/08/17 10:10:31;;;;;;;;;;;;;;;17.19;70.90;101699.13;5039807;28;1590;-82
2023/08/17 10:13:23;;;;;;;;;;;;;;;17.20;70.80;101695.34;5039953;28;2328;-81
2023/08/17 10:16:15;;;;;;;;;;;;;;;17.21;71.05;101697.00;5037718;28;1906;-79
2023/08/17 10:19:07;;;;;;;;;;;;;;;17.22;70.94;101698.66;5031459;28;1808;-77
2023/08/17 10:21:59;;;;;;;;;;;;;;;17.23;70.91;101699.47;5032189;28;1621;-79
2023/08/17 10:24:50;;;;;;;;;;;;;;;17.23;71.06;101708.47;5027967;28;1654;-81
2023/08/17 10:27:42;;;;;;;;;;;;;;;17.24;70.84;101706.59;5039557;28;2365;-80
2023/08/17 10:30:34;;;;;;;;;;;;;;;17.25;71.06;101713.69;5024870;28;2507;-82
2023/08/17 10:33:26;;;;;;;;;;;;;;;17.25;71.03;101708.25;5041647;28;2496;-80
2023/08/17 10:36:17;;;;;;;;;;;;;;;17.25;70.88;101703.63;5038901;28;2606;-81
2023/08/17 10:39:10;;;;;;;;;;;;;;;17.27;70.96;101719.75;5042372;28;2415;-81
2023/08/17 10:42:02;;;;;;;;;;;;;;;17.27;71.02;101714.31;5038287;28;2572;-80
2023/08/17 10:44:53;;;;;;;;;;;;;;;17.28;70.99;101715.94;5042466;28;2586;-80
2023/08/17 10:47:45;;;;;;;;;;;;;;;17.30;71.06;101713.00;5036536;28;2526;-81
2023/08/17 10:50:37;;;;;;;;;;;;;;;17.31;70.97;101718.19;5038805;28;2495;-81
2023/08/17 10:53:29;;;;;;;;;;;;;;;17.31;70.94;101720.09;5034340;28;2429;-81
2023/08/17 10:56:21;;;;;;;;;;;;;;;17.32;71.20;101719.03;5034013;28;4087;-80
2023/08/17 10:59:12;;;;;;;;;;;;;;;17.34;71.05;101711.44;5037337;28;2689;-80
2023/08/17 11:02:04;;;;;;;;;;;;;;;17.33;71.18;101712.53;5035442;28;2512;-80
2023/08/17 11:04:56;;;;;;;;;;;;;;;17.35;71.19;101713.09;5026411;28;2453;-80
2023/08/17 11:07:48;;;;;;;;;;;;;;;17.36;70.99;101714.78;5024048;28;2477;-79
2023/08/17 11:10:39;;;;;;;;;;;;;;;17.36;70.98;101712.88;5024640;28;2701;-81
2023/08/17 11:13:31;;;;;;;;;;;;;;;17.37;71.24;101710.97;5033300;28;2459;-81
2023/08/17 11:16:23;;;;;;;;;;;;;;;17.37;71.41;101717.25;5025623;28;2401;-80
2023/08/17 11:19:15;;;;;;;;;;;;;;;17.40;71.24;101715.94;5022779;28;2351;-82
2023/08/17 11:22:07;;;;;;;;;;;;;;;17.39;71.29;101717.84;5021898;28;2305;-82
2023/08/17 11:24:59;;;;;;;;;;;;;;;17.41;71.05;101715.72;5034765;28;2403;-82
2023/08/17 11:27:51;;;;;;;;;;;;;;;17.42;71.33;101714.66;5034340;28;2479;-80
2023/08/17 11:30:43;;;;;;;;;;;;;;;17.44;71.17;101712.53;5028309;28;2541;-82
2023/08/17 11:33:35;;;;;;;;;;;;;;;17.45;71.27;101718.78;5026188;28;2865;-82
2023/08/17 11:36:28;;;;;;;;;;;;;;;17.44;71.34;101709.81;5020752;28;2672;-82
2023/08/17 11:39:20;;;;;;;;;;;;;;;17.47;71.21;101713.91;5029497;28;2278;-81
2023/08/17 11:42:13;;;;;;;;;;;;;;;17.47;71.21;101709.34;5045370;28;2389;-82
2023/08/17 11:45:05;;;;;;;;;;;;;;;17.49;71.28;101714.53;5020660;28;2285;-81
2023/08/17 11:47:57;;;;;;;;;;;;;;;17.49;71.44;101715.34;5021575;28;2476;-82
2023/08/17 11:50:49;;;;;;;;;;;;;;;17.51;71.35;101723.28;5024696;28;2590;-82
2023/08/17 11:53:41;;;;;;;;;;;;;;;17.52;71.39;101724.94;5019827;28;2629;-82
2023/08/17 11:56:33;;;;;;;;;;;;;;;17.54;71.50;101724.72;5040432;28;2375;-82
2023/08/17 11:59:26;;;;;;;;;;;;;;;17.55;71.49;101723.63;5019531;28;2491;-81
2023/08/17 12:02:18;;;;;;;;;;;;;;;17.55;71.50;101710.84;5021980;28;2416;-82
2023/08/17 12:05:10;;;;;;;;;;;;;;;17.56;71.42;101712.53;5024165;28;2403;-82
2023/08/17 12:08:02;;;;;;;;;;;;;;;17.59;71.55;101725.66;5030581;28;2556;-82
2023/08/17 12:10:54;;;;;;;;;;;;;;;17.59;71.66;101717.50;5033006;28;2436;-83
2023/08/17 12:13:46;;;;;;;;;;;;;;;17.60;71.38;101712.88;5039791;28;2439;-81
2023/08/17 12:16:38;;;;;;;;;;;;;;;17.62;71.69;101713.47;5047339;28;2377;-82
2023/08/17 12:19:30;;;;;;;;;;;;;;;17.64;71.40;101717.59;5053670;28;2436;-83
2023/08/17 12:22:22;;;;;;;;;;;;;;;17.65;71.49;101715.72;5025793;28;2425;-82
2023/08/17 12:25:14;;;;;;;;;;;;;;;17.66;71.54;101720.91;5043679;28;2409;-81
2023/08/17 12:28:06;;;;;;;;;;;;;;;17.68;71.70;101723.41;5037241;28;2564;-83
2023/08/17 12:30:58;;;;;;;;;;;;;;;17.69;71.55;101714.16;5028986;28;2503;-81
2023/08/17 12:33:50;;;;;;;;;;;;;;;17.69;71.68;101709.53;5045217;28;2492;-83
2023/08/17 12:36:42;;;;;;;;;;;;;;;17.70;71.63;101697.56;5037787;28;2470;-82
2023/08/17 12:39:34;;;;;;;;;;;;;;;17.72;71.57;101708.22;5042016;28;2498;-81
2023/08/17 12:42:26;;;;;;;;;;;;;;;17.74;71.72;101694.38;5038148;28;2451;-83
2023/08/17 12:45:18;;;;;;;;;;;;;;;17.78;71.67;101709.19;5039465;28;2768;-82
2023/08/17 12:48:10;;;;;;;;;;;;;;;17.78;71.82;101701.84;5039378;28;2431;-82
2023/08/17 12:51:02;;;;;;;;;;;;;;;17.80;71.63;101705.16;5044762;28;3252;-82
2023/08/17 12:53:54;;;;;;;;;;;;;;;17.81;71.72;101700.53;5052916;28;1731;-81
2023/08/17 12:56:46;;;;;;;;;;;;;;;17.82;71.79;101700.28;5049726;28;1914;-81
2023/08/17 12:59:37;;;;;;;;;;;;;;;17.83;71.98;101698.41;5054694;28;1538;-81
2023/08/17 13:02:29;;;;;;;;;;;;;;;17.84;71.96;101692.72;5042125;28;1501;-83
2023/08/17 13:05:21;;;;;;;;;;;;;;;17.87;71.98;101688.69;5048527;28;2175;-80
2023/08/17 13:08:12;;;;;;;;;;;;;;;17.87;71.82;101689.50;5036773;28;1721;-82
2023/08/17 13:11:04;;;;;;;;;;;;;;;17.90;71.82;101689.03;5031013;28;1624;-81
2023/08/17 13:13:56;;;;;;;;;;;;;;;17.91;71.79;101689.84;5043456;28;1533;-79
2023/08/17 13:16:48;;;;;;;;;;;;;;;17.92;72.11;101689.63;5029417;28;2449;-82
2023/08/17 13:19:40;;;;;;;;;;;;;;;17.93;71.83;101698.63;5024719;28;2616;-82
2023/08/17 13:22:32;;;;;;;;;;;;;;;17.96;71.85;101691.84;5036717;28;2353;-81
2023/08/17 13:25:24;;;;;;;;;;;;;;;17.98;71.92;101698.72;5040217;28;2439;-82
2023/08/17 13:28:16;;;;;;;;;;;;;;;17.98;71.97;101701.44;5029956;28;2530;-83
2023/08/17 13:31:08;;;;;;;;;;;;;;;17.99;72.11;101694.09;5033204;28;2634;-83
2023/08/17 13:34:00;;;;;;;;;;;;;;;18.02;72.17;101702.63;5029339;28;2444;-82
2023/08/17 13:36:52;;;;;;;;;;;;;;;18.03;71.93;101685.22;5040136;28;1958;-81
2023/08/17 13:39:44;;;;;;;;;;;;;;;18.04;72.26;101689.59;5046789;28;1837;-80
2023/08/17 13:42:36;;;;;;;;;;;;;;;18.07;72.13;101688.28;5046260;28;1545;-80
2023/08/17 13:45:30;;;;;;;;;;;;;;;18.09;72.20;101689.69;5048469;28;2044;-81
2023/08/17 13:48:22;;;;;;;;;;;;;;;18.10;72.08;101685.06;5053291;28;1031;-81
2023/08/17 13:51:14;;;;;;;;;;;;;;;18.11;72.25;101681.25;5046749;28;1118;-82
2023/08/17 13:54:06;;;;;;;;;;;;;;;18.13;72.11;101690.84;5038465;28;2614;-83
2023/08/17 13:56:58;;;;;;;;;;;;;;;18.14;72.21;101686.22;5047465;28;2399;-81
2023/08/17 13:59:50;;;;;;;;;;;;;;;18.15;72.14;101686.00;5050705;28;1489;-83
2023/08/17 14:02:42;;;;;;;;;;;;;;;18.18;72.44;101687.41;5043554;28;1525;-82
2023/08/17 14:05:34;;;;;;;;;;;;;;;18.20;72.04;101679.78;5046638;28;2321;-82
2023/08/17 14:08:26;;;;;;;;;;;;;;;18.21;72.40;101689.66;5037982;28;2344;-82
2023/08/17 14:11:18;;;;;;;;;;;;;;;18.23;72.41;101686.66;5038687;28;2417;-88
2023/08/17 14:14:10;;;;;;;;;;;;;;;18.24;72.37;101685.63;5043243;28;2834;-83
2023/08/17 14:17:03;;;;;;;;;;;;;;;18.27;72.50;101680.50;5044860;28;1971;-83
2023/08/17 14:19:55;;;;;;;;;;;;;;;18.28;72.29;101684.03;5058440;28;1579;-83
2023/08/17 14:22:47;;;;;;;;;;;;;;;18.29;72.61;101686.50;5041606;28;1651;-82
2023/08/17 14:25:38;;;;;;;;;;;;;;;18.31;72.44;101678.91;5042454;28;1572;-81
2023/08/17 14:28:29;;;;;;;;;;;;;;;18.32;72.63;101677.88;5048142;28;3793;-81
2023/08/17 14:31:21;;;;;;;;;;;;;;;18.34;72.67;101683.06;5054362;28;1399;-81
2023/08/17 14:34:13;;;;;;;;;;;;;;;18.34;72.59;101672.16;5046057;28;1679;-82
2023/08/17 14:37:05;;;;;;;;;;;;;;;18.37;72.60;101675.22;5058737;28;1961;-81
2023/08/17 14:39:57;;;;;;;;;;;;;;;18.39;72.73;101677.72;5052675;28;1449;-81
2023/08/17 14:42:49;;;;;;;;;;;;;;;18.40;72.61;101671.19;5042208;28;2123;-82
2023/08/17 14:45:41;;;;;;;;;;;;;;;18.42;72.84;101673.66;5040016;28;1789;-81
2023/08/17 14:48:33;;;;;;;;;;;;;;;18.44;72.66;101683.25;5040339;28;1679;-81
2023/08/17 14:51:25;;;;;;;;;;;;;;;18.45;72.79;101674.00;5040895;28;1619;-82
2023/08/17 14:54:17;;;;;;;;;;;;;;;18.46;72.66;101670.19;5039814;28;1877;-82
2023/08/17 14:57:12;;;;;;;;;;;;;;;18.48;72.93;101673.50;5042441;28;1902;-81